Time,TemperatureF,DewpointF,PressureIn,WindDirection,WindDirectionDegrees,WindSpeedMPH,WindSpeedGustMPH,Humidity,HourlyPrecipIn,Conditions,Clouds,dailyrainin,SoftwareType,DateUTC
2013-04-25 00:03:00,69.0,-99.9,30.15,ENE,57,7.0,7.0,-999,-99.99,,,-99.99,,2013-04-25 05:03:00,
2013-04-25 00:12:00,69.0,-99.9,30.15,NE,53,6.0,7.0,-999,-99.99,,,-99.99,,2013-04-25 05:12:00,
2013-04-25 00:22:00,69.0,-99.9,30.16,ENE,59,5.0,7.0,-999,-99.99,,,-99.99,,2013-04-25 05:22:00,
2013-04-25 00:32:00,69.0,-99.9,30.16,NE,49,5.0,6.0,-999,-99.99,,,-99.99,,2013-04-25 05:32:00,
2013-04-25 00:42:00,69.0,-99.9,30.16,NE,51,5.0,6.0,-999,-99.99,,,-99.99,,2013-04-25 05:42:00,
2013-04-25 00:52:00,69.0,-99.9,30.16,NE,49,5.0,6.0,-999,-99.99,,,-99.99,,2013-04-25 05:52:00,
2013-04-25 01:02:00,69.0,-99.9,30.16,NE,34,6.0,6.0,-999,-99.99,,,-99.99,,2013-04-25 06:02:00,
2013-04-25 01:12:00,69.0,-99.9,30.16,NNE,18,6.0,10.0,-999,-99.99,,,-99.99,,2013-04-25 06:12:00,
2013-04-25 01:22:00,69.0,-99.9,30.16,North,10,11.0,13.0,-999,-99.99,,,-99.99,,2013-04-25 06:22:00,
2013-04-25 01:32:00,68.0,-99.9,30.16,North,8,13.0,16.0,-999,-99.99,,,-99.99,,2013-04-25 06:32:00,
2013-04-25 01:42:00,68.0,-99.9,30.16,NNE,12,14.0,19.0,-999,-99.99,,,-99.99,,2013-04-25 06:42:00,
2013-04-25 01:52:00,66.0,-99.9,30.16,NNE,14,19.0,21.0,-999,-99.99,,,-99.99,,2013-04-25 06:52:00,
2013-04-25 02:02:00,65.0,-99.9,30.16,North,8,20.0,22.0,-999,-99.99,,,-99.99,,2013-04-25 07:02:00,
2013-04-25 02:12:00,64.0,-99.9,30.16,NNE,15,19.0,21.0,-999,-99.99,,,-99.99,,2013-04-25 07:12:00,
2013-04-25 02:22:00,64.0,-99.9,30.16,North,8,20.0,23.0,-999,-99.99,,,-99.99,,2013-04-25 07:22:00,
2013-04-25 02:32:00,63.0,-99.9,30.17,North,7,21.0,24.0,-999,-99.99,,,-99.99,,2013-04-25 07:32:00,
2013-04-25 02:42:00,63.0,-99.9,30.17,North,6,21.0,24.0,-999,-99.99,,,-99.99,,2013-04-25 07:42:00,
2013-04-25 02:53:00,63.0,-99.9,30.17,North,8,22.0,27.0,-999,-99.99,,,-99.99,,2013-04-25 07:53:00,
2013-04-25 03:02:00,62.0,-99.9,30.17,North,6,22.0,25.0,-999,-99.99,,,-99.99,,2013-04-25 08:02:00,
2013-04-25 03:11:00,62.0,-99.9,30.17,North,5,23.0,26.0,-999,-99.99,,,-99.99,,2013-04-25 08:11:00,
2013-04-25 03:22:00,62.0,-99.9,30.17,North,1,22.0,25.0,-999,-99.99,,,-99.99,,2013-04-25 08:22:00,
2013-04-25 03:32:00,61.0,-99.9,30.17,North,7,22.0,26.0,-999,-99.99,,,-99.99,,2013-04-25 08:32:00,
2013-04-25 03:42:00,61.0,-99.9,30.17,North,8,22.0,25.0,-999,-99.99,,,-99.99,,2013-04-25 08:42:00,
2013-04-25 03:52:00,61.0,-99.9,30.17,North,7,20.0,24.0,-999,-99.99,,,-99.99,,2013-04-25 08:52:00,
2013-04-25 04:01:00,61.0,-99.9,30.18,North,6,22.0,23.0,-999,-99.99,,,-99.99,,2013-04-25 09:01:00,
2013-04-25 04:11:00,61.0,-99.9,30.18,North,8,21.0,23.0,-999,-99.99,,,-99.99,,2013-04-25 09:11:00,
2013-04-25 04:22:00,61.0,-99.9,30.19,North,5,21.0,23.0,-999,-99.99,,,-99.99,,2013-04-25 09:22:00,
2013-04-25 04:33:00,61.0,-99.9,30.18,North,6,20.0,24.0,-999,-99.99,,,-99.99,,2013-04-25 09:33:00,
2013-04-25 04:42:00,61.0,-99.9,30.18,North,10,21.0,23.0,-999,-99.99,,,-99.99,,2013-04-25 09:42:00,
2013-04-25 04:53:00,60.0,-99.9,30.18,North,3,21.0,24.0,-999,-99.99,,,-99.99,,2013-04-25 09:53:00,
2013-04-25 05:03:00,60.0,-99.9,30.19,North,4,22.0,25.0,-999,-99.99,,,-99.99,,2013-04-25 10:03:00,
2013-04-25 05:12:00,60.0,-99.9,30.19,North,6,21.0,25.0,-999,-99.99,,,-99.99,,2013-04-25 10:12:00,
2013-04-25 05:22:00,61.0,-99.9,30.19,North,6,20.0,25.0,-999,-99.99,,,-99.99,,2013-04-25 10:22:00,
2013-04-25 05:33:00,60.0,-99.9,30.19,North,3,22.0,25.0,-999,-99.99,,,-99.99,,2013-04-25 10:33:00,
2013-04-25 05:42:00,60.0,-99.9,30.19,North,3,24.0,27.0,-999,-99.99,,,-99.99,,2013-04-25 10:42:00,
2013-04-25 05:53:00,60.0,-99.9,30.19,North,5,22.0,26.0,-999,-99.99,,,-99.99,,2013-04-25 10:53:00,
2013-04-25 06:02:00,60.0,-99.9,30.20,North,5,23.0,29.0,-999,-99.99,,,-99.99,,2013-04-25 11:02:00,
2013-04-25 06:12:00,59.0,-99.9,30.20,North,6,24.0,28.0,-999,-99.99,,,-99.99,,2013-04-25 11:12:00,
2013-04-25 06:22:00,60.0,-99.9,30.20,North,7,24.0,30.0,-999,-99.99,,,-99.99,,2013-04-25 11:22:00,
2013-04-25 06:33:00,60.0,-99.9,30.21,North,6,25.0,28.0,-999,-99.99,,,-99.99,,2013-04-25 11:33:00,
2013-04-25 06:42:00,60.0,-99.9,30.21,NNE,18,26.0,28.0,-999,-99.99,,,-99.99,,2013-04-25 11:42:00,
2013-04-25 06:52:00,60.0,-99.9,30.22,North,10,24.0,29.0,-999,-99.99,,,-99.99,,2013-04-25 11:52:00,
2013-04-25 07:01:00,60.0,-99.9,30.22,NNE,17,23.0,26.0,-999,-99.99,,,-99.99,,2013-04-25 12:01:00,
2013-04-25 07:12:00,60.0,-99.9,30.22,NNE,18,24.0,27.0,-999,-99.99,,,-99.99,,2013-04-25 12:12:00,
2013-04-25 07:22:00,60.0,-99.9,30.22,NNE,20,23.0,27.0,-999,-99.99,,,-99.99,,2013-04-25 12:22:00,
2013-04-25 07:32:00,59.0,-99.9,30.22,NNE,23,25.0,30.0,-999,-99.99,,,-99.99,,2013-04-25 12:32:00,
2013-04-25 07:42:00,59.0,-99.9,30.22,NNE,24,27.0,29.0,-999,-99.99,,,-99.99,,2013-04-25 12:42:00,
2013-04-25 07:52:00,59.0,-99.9,30.23,NNE,26,25.0,28.0,-999,-99.99,,,-99.99,,2013-04-25 12:52:00,
2013-04-25 08:02:00,59.0,-99.9,30.24,NNE,18,23.0,27.0,-999,-99.99,,,-99.99,,2013-04-25 13:02:00,
2013-04-25 08:11:00,59.0,-99.9,30.24,NNE,22,23.0,27.0,-999,-99.99,,,-99.99,,2013-04-25 13:11:00,
2013-04-25 08:21:00,59.0,-99.9,30.25,NNE,13,21.0,24.0,-999,-99.99,,,-99.99,,2013-04-25 13:21:00,
2013-04-25 08:32:00,59.0,-99.9,30.26,North,8,22.0,26.0,-999,-99.99,,,-99.99,,2013-04-25 13:32:00,
2013-04-25 08:42:00,59.0,-99.9,30.26,NNE,16,21.0,24.0,-999,-99.99,,,-99.99,,2013-04-25 13:42:00,
2013-04-25 08:53:00,59.0,-99.9,30.27,North,9,21.0,24.0,-999,-99.99,,,-99.99,,2013-04-25 13:53:00,
2013-04-25 09:02:00,59.0,-99.9,30.27,North,9,23.0,25.0,-999,-99.99,,,-99.99,,2013-04-25 14:02:00,
2013-04-25 09:11:00,59.0,-99.9,30.28,North,8,24.0,28.0,-999,-99.99,,,-99.99,,2013-04-25 14:11:00,
2013-04-25 09:22:00,59.0,-99.9,30.28,North,8,23.0,28.0,-999,-99.99,,,-99.99,,2013-04-25 14:22:00,
2013-04-25 09:32:00,60.0,-99.9,30.28,NNE,17,19.0,25.0,-999,-99.99,,,-99.99,,2013-04-25 14:32:00,
2013-04-25 09:42:00,59.0,-99.9,30.28,NNE,22,21.0,22.0,-999,-99.99,,,-99.99,,2013-04-25 14:42:00,
2013-04-25 09:52:00,59.0,-99.9,30.28,NNE,19,18.0,22.0,-999,-99.99,,,-99.99,,2013-04-25 14:52:00,
2013-04-25 10:02:00,60.0,-99.9,30.29,NNE,20,19.0,23.0,-999,-99.99,,,-99.99,,2013-04-25 15:02:00,
2013-04-25 10:11:00,60.0,-99.9,30.29,NNE,19,21.0,25.0,-999,-99.99,,,-99.99,,2013-04-25 15:11:00,
2013-04-25 10:21:00,60.0,-99.9,30.29,NNE,16,23.0,29.0,-999,-99.99,,,-99.99,,2013-04-25 15:21:00,
2013-04-25 10:33:00,60.0,-99.9,30.29,North,10,24.0,27.0,-999,-99.99,,,-99.99,,2013-04-25 15:33:00,
2013-04-25 10:42:00,60.0,-99.9,30.29,NNE,17,23.0,27.0,-999,-99.99,,,-99.99,,2013-04-25 15:42:00,
2013-04-25 10:53:00,60.0,-99.9,30.29,North,9,23.0,27.0,-999,-99.99,,,-99.99,,2013-04-25 15:53:00,
2013-04-25 11:03:00,60.0,-99.9,30.29,NNE,13,22.0,27.0,-999,-99.99,,,-99.99,,2013-04-25 16:03:00,
2013-04-25 11:13:00,60.0,-99.9,30.29,NNE,22,21.0,26.0,-999,-99.99,,,-99.99,,2013-04-25 16:13:00,
2013-04-25 11:24:00,60.0,-99.9,30.30,NNE,13,20.0,25.0,-999,-99.99,,,-99.99,,2013-04-25 16:24:00,
2013-04-25 11:33:00,60.0,-99.9,30.30,NNE,15,19.0,21.0,-999,-99.99,,,-99.99,,2013-04-25 16:33:00,
2013-04-25 11:43:00,60.0,-99.9,30.30,NNE,14,17.0,21.0,-999,-99.99,,,-99.99,,2013-04-25 16:43:00,
2013-04-25 11:53:00,61.0,-99.9,30.30,NNE,17,14.0,17.0,-999,-99.99,,,-99.99,,2013-04-25 16:53:00,
2013-04-25 12:02:00,61.0,-99.9,30.30,North,7,13.0,16.0,-999,-99.99,,,-99.99,,2013-04-25 17:02:00,
2013-04-25 12:12:00,61.0,-99.9,30.30,North,11,14.0,15.0,-999,-99.99,,,-99.99,,2013-04-25 17:12:00,
2013-04-25 12:22:00,62.0,-99.9,30.29,NNE,13,10.0,13.0,-999,-99.99,,,-99.99,,2013-04-25 17:22:00,
2013-04-25 12:32:00,62.0,-99.9,30.29,North,5,12.0,14.0,-999,-99.99,,,-99.99,,2013-04-25 17:32:00,
2013-04-25 12:42:00,62.0,-99.9,30.29,North,4,12.0,14.0,-999,-99.99,,,-99.99,,2013-04-25 17:42:00,
2013-04-25 12:53:00,62.0,-99.9,30.29,North,357,16.0,18.0,-999,-99.99,,,-99.99,,2013-04-25 17:53:00,
2013-04-25 13:02:00,63.0,-99.9,30.29,North,4,18.0,19.0,-999,-99.99,,,-99.99,,2013-04-25 18:02:00,
2013-04-25 13:11:00,63.0,-99.9,30.29,North,357,17.0,18.0,-999,-99.99,,,-99.99,,2013-04-25 18:11:00,
2013-04-25 13:22:00,64.0,-99.9,30.29,North,4,14.0,15.0,-999,-99.99,,,-99.99,,2013-04-25 18:22:00,
2013-04-25 13:32:00,64.0,-99.9,30.29,North,2,16.0,18.0,-999,-99.99,,,-99.99,,2013-04-25 18:32:00,
2013-04-25 13:43:00,65.0,-99.9,30.29,North,2,16.0,18.0,-999,-99.99,,,-99.99,,2013-04-25 18:43:00,
2013-04-25 13:53:00,66.0,-99.9,30.29,North,355,15.0,17.0,-999,-99.99,,,-99.99,,2013-04-25 18:53:00,
2013-04-25 14:02:00,66.0,-99.9,30.29,North,358,17.0,18.0,-999,-99.99,,,-99.99,,2013-04-25 19:02:00,
2013-04-25 14:12:00,67.0,-99.9,30.29,North,358,19.0,20.0,-999,-99.99,,,-99.99,,2013-04-25 19:12:00,
2013-04-25 14:21:00,67.0,-99.9,30.29,North,357,17.0,19.0,-999,-99.99,,,-99.99,,2013-04-25 19:21:00,
2013-04-25 14:32:00,67.0,-99.9,30.28,North,4,13.0,14.0,-999,-99.99,,,-99.99,,2013-04-25 19:32:00,
2013-04-25 14:42:00,67.0,-99.9,30.28,North,8,13.0,14.0,-999,-99.99,,,-99.99,,2013-04-25 19:42:00,
2013-04-25 14:52:00,68.0,-99.9,30.28,North,-999,13.0,15.0,-999,-99.99,,,-99.99,,2013-04-25 19:52:00,
2013-04-25 15:02:00,68.0,-99.9,30.28,North,3,14.0,16.0,-999,-99.99,,,-99.99,,2013-04-25 20:02:00,
2013-04-25 15:12:00,69.0,-99.9,30.27,North,3,15.0,16.0,-999,-99.99,,,-99.99,,2013-04-25 20:12:00,
2013-04-25 15:22:00,69.0,-99.9,30.27,North,4,14.0,15.0,-999,-99.99,,,-99.99,,2013-04-25 20:22:00,
2013-04-25 15:32:00,69.0,-99.9,30.27,North,3,15.0,16.0,-999,-99.99,,,-99.99,,2013-04-25 20:32:00,
2013-04-25 15:43:00,70.0,-99.9,30.26,North,6,14.0,17.0,-999,-99.99,,,-99.99,,2013-04-25 20:43:00,
2013-04-25 15:52:00,70.0,-99.9,30.25,North,10,15.0,16.0,-999,-99.99,,,-99.99,,2013-04-25 20:52:00,
2013-04-25 16:01:00,70.0,-99.9,30.25,North,6,15.0,17.0,-999,-99.99,,,-99.99,,2013-04-25 21:01:00,
2013-04-25 16:11:00,70.0,-99.9,30.25,North,5,16.0,17.0,-999,-99.99,,,-99.99,,2013-04-25 21:11:00,
2013-04-25 16:22:00,71.0,-99.9,30.24,NNE,13,14.0,16.0,-999,-99.99,,,-99.99,,2013-04-25 21:22:00,
2013-04-25 16:33:00,70.0,-99.9,30.24,North,10,13.0,16.0,-999,-99.99,,,-99.99,,2013-04-25 21:33:00,
2013-04-25 16:42:00,70.0,-99.9,30.24,North,7,14.0,16.0,-999,-99.99,,,-99.99,,2013-04-25 21:42:00,
2013-04-25 16:53:00,70.0,-99.9,30.24,North,9,14.0,16.0,-999,-99.99,,,-99.99,,2013-04-25 21:53:00,
2013-04-25 17:03:00,71.0,-99.9,30.24,North,3,15.0,17.0,-999,-99.99,,,-99.99,,2013-04-25 22:03:00,
2013-04-25 17:12:00,71.0,-99.9,30.24,North,3,16.0,18.0,-999,-99.99,,,-99.99,,2013-04-25 22:12:00,
2013-04-25 17:22:00,71.0,-99.9,30.24,North,2,17.0,19.0,-999,-99.99,,,-99.99,,2013-04-25 22:22:00,
2013-04-25 17:33:00,71.0,-99.9,30.24,North,6,18.0,20.0,-999,-99.99,,,-99.99,,2013-04-25 22:33:00,
2013-04-25 17:42:00,71.0,-99.9,30.24,North,7,18.0,20.0,-999,-99.99,,,-99.99,,2013-04-25 22:42:00,
2013-04-25 17:53:00,71.0,-99.9,30.24,North,7,17.0,19.0,-999,-99.99,,,-99.99,,2013-04-25 22:53:00,
2013-04-25 18:02:00,71.0,-99.9,30.24,North,6,18.0,20.0,-999,-99.99,,,-99.99,,2013-04-25 23:02:00,
2013-04-25 18:12:00,71.0,-99.9,30.24,North,3,17.0,20.0,-999,-99.99,,,-99.99,,2013-04-25 23:12:00,
2013-04-25 18:22:00,71.0,-99.9,30.24,North,5,18.0,19.0,-999,-99.99,,,-99.99,,2013-04-25 23:22:00,
2013-04-25 18:32:00,71.0,-99.9,30.24,North,5,17.0,19.0,-999,-99.99,,,-99.99,,2013-04-25 23:32:00,
2013-04-25 18:42:00,71.0,-99.9,30.24,North,3,15.0,19.0,-999,-99.99,,,-99.99,,2013-04-25 23:42:00,
2013-04-25 18:52:00,71.0,-99.9,30.25,North,7,15.0,18.0,-999,-99.99,,,-99.99,,2013-04-25 23:52:00,
2013-04-25 19:01:00,71.0,-99.9,30.24,North,5,17.0,20.0,-999,-99.99,,,-99.99,,2013-04-26 00:01:00,
2013-04-25 19:11:00,71.0,-99.9,30.24,North,4,17.0,20.0,-999,-99.99,,,-99.99,,2013-04-26 00:11:00,
2013-04-25 19:22:00,71.0,-99.9,30.24,North,360,18.0,22.0,-999,-99.99,,,-99.99,,2013-04-26 00:22:00,
2013-04-25 19:32:00,71.0,-99.9,30.24,North,-999,22.0,24.0,-999,-99.99,,,-99.99,,2013-04-26 00:32:00,
2013-04-25 19:42:00,71.0,-99.9,30.24,North,4,23.0,27.0,-999,-99.99,,,-99.99,,2013-04-26 00:42:00,
2013-04-25 19:52:00,71.0,-99.9,30.24,North,5,23.0,26.0,-999,-99.99,,,-99.99,,2013-04-26 00:52:00,
2013-04-25 20:01:00,71.0,-99.9,30.25,North,5,24.0,27.0,-999,-99.99,,,-99.99,,2013-04-26 01:01:00,
2013-04-25 20:11:00,71.0,-99.9,30.25,North,6,23.0,27.0,-999,-99.99,,,-99.99,,2013-04-26 01:11:00,
2013-04-25 20:22:00,71.0,-99.9,30.25,North,5,22.0,24.0,-999,-99.99,,,-99.99,,2013-04-26 01:22:00,
2013-04-25 20:32:00,70.0,-99.9,30.25,North,10,19.0,22.0,-999,-99.99,,,-99.99,,2013-04-26 01:32:00,
2013-04-25 20:42:00,70.0,-99.9,30.25,North,11,21.0,23.0,-999,-99.99,,,-99.99,,2013-04-26 01:42:00,
2013-04-25 20:52:00,70.0,-99.9,30.25,NNE,15,18.0,20.0,-999,-99.99,,,-99.99,,2013-04-26 01:52:00,
2013-04-25 21:02:00,70.0,-99.9,30.26,NNE,15,17.0,19.0,-999,-99.99,,,-99.99,,2013-04-26 02:02:00,
2013-04-25 21:12:00,70.0,-99.9,30.26,NNE,15,17.0,20.0,-999,-99.99,,,-99.99,,2013-04-26 02:12:00,
2013-04-25 21:22:00,70.0,-99.9,30.26,NNE,14,17.0,19.0,-999,-99.99,,,-99.99,,2013-04-26 02:22:00,
2013-04-25 21:32:00,70.0,-99.9,30.27,NNE,17,17.0,19.0,-999,-99.99,,,-99.99,,2013-04-26 02:32:00,
2013-04-25 21:42:00,70.0,-99.9,30.27,NNE,16,16.0,17.0,-999,-99.99,,,-99.99,,2013-04-26 02:42:00,
2013-04-25 21:52:00,70.0,-99.9,30.28,NNE,22,17.0,18.0,-999,-99.99,,,-99.99,,2013-04-26 02:52:00,
2013-04-25 22:01:00,70.0,-99.9,30.28,NNE,25,19.0,21.0,-999,-99.99,,,-99.99,,2013-04-26 03:01:00,
2013-04-25 22:11:00,70.0,-99.9,30.28,NNE,27,19.0,22.0,-999,-99.99,,,-99.99,,2013-04-26 03:11:00,
2013-04-25 22:22:00,69.0,-99.9,30.28,NNE,27,18.0,23.0,-999,-99.99,,,-99.99,,2013-04-26 03:22:00,
2013-04-25 22:33:00,69.0,-99.9,30.28,NNE,28,20.0,22.0,-999,-99.99,,,-99.99,,2013-04-26 03:33:00,
2013-04-25 22:43:00,69.0,-99.9,30.28,NNE,32,18.0,22.0,-999,-99.99,,,-99.99,,2013-04-26 03:43:00,
2013-04-25 22:53:00,69.0,-99.9,30.28,NNE,33,18.0,21.0,-999,-99.99,,,-99.99,,2013-04-26 03:53:00,
2013-04-25 23:03:00,69.0,-99.9,30.29,NNE,32,17.0,21.0,-999,-99.99,,,-99.99,,2013-04-26 04:03:00,
2013-04-25 23:12:00,68.0,-99.9,30.28,NNE,32,17.0,19.0,-999,-99.99,,,-99.99,,2013-04-26 04:12:00,
2013-04-25 23:23:00,68.0,-99.9,30.29,NNE,31,16.0,19.0,-999,-99.99,,,-99.99,,2013-04-26 04:23:00,
2013-04-25 23:33:00,68.0,-99.9,30.29,NNE,32,17.0,19.0,-999,-99.99,,,-99.99,,2013-04-26 04:33:00,
2013-04-25 23:43:00,68.0,-99.9,30.29,NNE,30,17.0,19.0,-999,-99.99,,,-99.99,,2013-04-26 04:43:00,
2013-04-25 23:53:00,68.0,-99.9,30.29,NNE,28,16.0,18.0,-999,-99.99,,,-99.99,,2013-04-26 04:53:00,